createdAt,value
2022-10-14T00:00:36.126Z,94.37
2022-10-14T00:01:36.156Z,94.27
2022-10-14T00:02:36.106Z,94.08
2022-10-14T00:03:36.112Z,94.46
2022-10-14T00:04:36.075Z,94.17
2022-10-14T00:05:36.088Z,93.79
2022-10-14T00:06:36.070Z,93.60
2022-10-14T00:07:36.068Z,93.79
2022-10-14T00:08:36.069Z,94.46
2022-10-14T00:09:36.090Z,93.98
2022-10-14T00:10:36.062Z,93.98
2022-10-14T00:11:36.063Z,94.03
2022-10-14T00:12:36.068Z,94.56
2022-10-14T00:13:36.037Z,94.84
2022-10-14T00:14:36.038Z,94.37
2022-10-14T00:15:36.031Z,94.46
2022-10-14T00:16:36.093Z,94.56
2022-10-14T00:17:36.016Z,95.12
2022-10-14T00:18:36.022Z,94.98
2022-10-14T00:19:36.028Z,94.93
2022-10-14T00:20:36.007Z,95.03
2022-10-14T00:21:36.019Z,95.03
2022-10-14T00:22:36.016Z,94.74
2022-10-14T00:23:36.002Z,94.84
2022-10-14T00:24:36.028Z,94.41
2022-10-14T00:25:35.990Z,94.79
2022-10-14T00:26:35.983Z,94.79
2022-10-14T00:27:35.987Z,94.51
2022-10-14T00:28:36.014Z,94.89
2022-10-14T00:29:35.979Z,94.98
2022-10-14T00:30:35.969Z,94.89
2022-10-14T00:31:35.993Z,94.89
2022-10-14T00:32:35.964Z,95.22
2022-10-14T00:33:35.953Z,94.98
2022-10-14T00:34:35.952Z,94.98
2022-10-14T00:35:36.033Z,94.74
2022-10-14T00:36:35.938Z,94.79
2022-10-14T00:37:35.942Z,94.98
2022-10-14T00:38:35.943Z,94.32
2022-10-14T00:39:35.953Z,94.60
2022-10-14T00:40:35.947Z,94.60
2022-10-14T00:41:35.931Z,94.13
2022-10-14T00:42:35.911Z,94.03
2022-10-14T00:43:35.913Z,93.93
2022-10-14T00:44:35.912Z,93.93
2022-10-14T00:45:35.904Z,93.84
2022-10-14T00:46:35.901Z,94.03
2022-10-14T00:47:35.922Z,94.22
2022-10-14T00:48:35.926Z,94.13
2022-10-14T00:49:35.907Z,93.55
2022-10-14T00:50:35.881Z,93.84
2022-10-14T00:51:35.877Z,93.84
2022-10-14T00:52:35.875Z,93.84
2022-10-14T00:53:35.868Z,93.55
2022-10-14T00:54:35.906Z,94.13
2022-10-14T00:55:35.872Z,93.84
2022-10-14T00:56:35.866Z,94.13
2022-10-14T00:57:35.890Z,94.13
2022-10-14T00:58:35.855Z,94.03
2022-10-14T00:59:35.869Z,94.13
2022-10-14T01:00:35.871Z,94.13
2022-10-14T01:01:35.845Z,93.93
2022-10-14T01:02:35.945Z,94.03
2022-10-14T01:03:35.873Z,93.93
2022-10-14T01:04:35.853Z,94.03
2022-10-14T01:05:35.899Z,94.22
2022-10-14T01:06:35.821Z,94.60
2022-10-14T01:07:35.836Z,94.79
2022-10-14T01:08:35.858Z,94.60
2022-10-14T01:09:35.806Z,94.41
2022-10-14T01:10:35.798Z,94.51
2022-10-14T01:11:35.819Z,94.32
2022-10-14T01:12:35.803Z,95.08
2022-10-14T01:13:35.904Z,94.32
2022-10-14T01:14:35.795Z,94.70
2022-10-14T01:15:35.803Z,94.70
2022-10-14T01:16:35.943Z,94.41
2022-10-14T01:17:35.766Z,94.51
2022-10-14T01:18:35.754Z,94.79
2022-10-14T01:19:35.772Z,94.32
2022-10-14T01:20:35.755Z,93.93
2022-10-14T01:21:35.761Z,93.93
2022-10-14T01:22:35.746Z,94.32
2022-10-14T01:23:35.743Z,94.32
2022-10-14T01:24:35.745Z,93.84
2022-10-14T01:25:35.752Z,93.93
2022-10-14T01:26:35.723Z,94.03
2022-10-14T01:27:35.752Z,94.13
2022-10-14T01:28:35.816Z,93.93
2022-10-14T01:29:35.719Z,94.03
2022-10-14T01:30:35.712Z,93.93
2022-10-14T01:31:35.699Z,93.93
2022-10-14T01:32:35.723Z,94.03
2022-10-14T01:33:35.709Z,93.93
2022-10-14T01:34:35.691Z,94.03
2022-10-14T01:35:35.694Z,94.03
2022-10-14T01:36:35.686Z,94.13
2022-10-14T01:37:35.699Z,94.22
2022-10-14T01:38:35.719Z,94.51
2022-10-14T01:39:35.691Z,94.32
2022-10-14T01:40:35.672Z,94.03
2022-10-14T01:41:35.670Z,93.93
2022-10-14T01:42:35.680Z,94.32
2022-10-14T01:43:35.663Z,94.22
2022-10-14T01:44:35.640Z,94.22
2022-10-14T01:45:35.635Z,94.22
2022-10-14T01:46:35.633Z,94.13
2022-10-14T01:47:35.638Z,93.55
2022-10-14T01:48:35.673Z,93.84
2022-10-14T01:49:35.634Z,93.93
2022-10-14T01:50:35.634Z,93.37
2022-10-14T01:51:35.632Z,93.46
2022-10-14T01:52:35.622Z,93.27
2022-10-14T01:53:35.617Z,93.27
2022-10-14T01:54:35.639Z,92.69
2022-10-14T01:55:35.599Z,93.17
2022-10-14T01:56:39.635Z,92.79
2022-10-14T01:57:35.588Z,93.17
2022-10-14T01:58:35.589Z,93.37
2022-10-14T01:59:35.593Z,93.27
2022-10-14T02:00:35.583Z,93.46
2022-10-14T02:01:35.620Z,93.46
2022-10-14T02:02:35.573Z,93.08
2022-10-14T02:03:35.592Z,93.27
2022-10-14T02:04:35.557Z,93.93
2022-10-14T02:05:35.553Z,93.74
2022-10-14T02:06:35.554Z,93.74
2022-10-14T02:07:35.560Z,93.46
2022-10-14T02:08:35.551Z,93.84
2022-10-14T02:09:35.539Z,94.13
2022-10-14T02:10:35.545Z,94.13
2022-10-14T02:11:35.534Z,94.13
2022-10-14T02:12:35.524Z,94.13
2022-10-14T02:13:35.516Z,93.93
2022-10-14T02:14:35.528Z,94.27
2022-10-14T02:15:35.502Z,94.32
2022-10-14T02:16:35.515Z,94.08
2022-10-14T02:17:35.514Z,94.27
2022-10-14T02:18:35.517Z,94.27
2022-10-14T02:19:35.487Z,94.08
2022-10-14T02:20:35.489Z,93.98
2022-10-14T02:21:35.477Z,94.17
2022-10-14T02:22:35.471Z,94.27
2022-10-14T02:23:35.515Z,93.89
2022-10-14T02:24:35.472Z,93.89
2022-10-14T02:25:35.475Z,93.89
2022-10-14T02:26:35.467Z,94.27
2022-10-14T02:27:35.455Z,94.27
2022-10-14T02:28:35.529Z,93.98
2022-10-14T02:29:35.440Z,93.89
2022-10-14T02:30:35.451Z,93.89
2022-10-14T02:31:35.432Z,93.98
2022-10-14T02:32:35.434Z,93.89
2022-10-14T02:33:35.429Z,94.46
2022-10-14T02:34:35.454Z,94.65
2022-10-14T02:35:35.418Z,94.56
2022-10-14T02:36:35.440Z,94.56
2022-10-14T02:37:35.414Z,94.65
2022-10-14T02:38:35.398Z,95.12
2022-10-14T02:39:35.413Z,95.41
2022-10-14T02:40:35.397Z,95.32
2022-10-14T02:41:35.385Z,94.27
2022-10-14T02:42:35.386Z,94.93
2022-10-14T02:43:35.391Z,94.65
2022-10-14T02:44:35.387Z,95.51
2022-10-14T02:45:35.389Z,95.32
2022-10-14T02:46:35.376Z,95.32
2022-10-14T02:47:35.391Z,95.51
2022-10-14T02:48:35.348Z,95.70
2022-10-14T02:49:35.373Z,96.17
2022-10-14T02:50:35.349Z,96.08
2022-10-14T02:51:35.335Z,95.98
2022-10-14T02:52:35.346Z,95.70
2022-10-14T02:53:35.354Z,96.27
2022-10-14T02:54:35.329Z,96.17
2022-10-14T02:55:35.323Z,96.41
2022-10-14T02:56:35.346Z,96.22
2022-10-14T02:57:35.333Z,96.70
2022-10-14T02:58:35.304Z,96.98
2022-10-14T02:59:35.302Z,96.80
2022-10-14T03:00:35.298Z,97.36
2022-10-14T03:01:37.763Z,97.27
2022-10-14T03:02:35.294Z,96.51
2022-10-14T03:03:35.309Z,96.98
2022-10-14T03:04:35.311Z,96.70
2022-10-14T03:05:35.290Z,96.98
2022-10-14T03:06:35.279Z,96.98
2022-10-14T03:07:35.264Z,97.27
2022-10-14T03:08:35.259Z,96.98
2022-10-14T03:09:35.256Z,97.17
2022-10-14T03:10:35.260Z,97.08
2022-10-14T03:11:35.267Z,97.27
2022-10-14T03:12:35.269Z,97.36
2022-10-14T03:13:35.285Z,97.36
2022-10-14T03:14:35.303Z,97.36
2022-10-14T03:15:35.225Z,97.46
2022-10-14T03:16:35.237Z,97.94
2022-10-14T03:17:35.302Z,97.94
2022-10-14T03:18:35.217Z,97.46
2022-10-14T03:19:35.214Z,97.08
2022-10-14T03:20:35.222Z,97.17
2022-10-14T03:21:35.224Z,97.17
2022-10-14T03:22:35.233Z,97.56
2022-10-14T03:23:35.190Z,97.08
2022-10-14T03:24:35.189Z,97.08
2022-10-14T03:25:35.190Z,97.36
2022-10-14T03:26:35.191Z,97.27
2022-10-14T03:27:35.177Z,97.27
2022-10-14T03:28:35.231Z,96.98
2022-10-14T03:29:35.171Z,97.27
2022-10-14T03:30:35.192Z,97.27
2022-10-14T03:31:35.198Z,97.27
2022-10-14T03:32:35.159Z,97.27
2022-10-14T03:33:35.159Z,97.17
2022-10-14T03:34:35.148Z,97.27
2022-10-14T03:35:35.143Z,97.27
2022-10-14T03:36:35.134Z,97.36
2022-10-14T03:37:35.132Z,97.27
2022-10-14T03:38:35.135Z,96.70
2022-10-14T03:39:35.135Z,96.98
2022-10-14T03:40:35.143Z,96.80
2022-10-14T03:41:35.108Z,96.80
2022-10-14T03:42:35.104Z,96.89
2022-10-14T03:43:35.106Z,96.89
2022-10-14T03:44:35.102Z,96.70
2022-10-14T03:45:35.097Z,96.80
2022-10-14T03:46:35.119Z,96.89
2022-10-14T03:47:35.099Z,96.70
2022-10-14T03:48:35.111Z,96.80
2022-10-14T03:49:35.108Z,97.27
2022-10-14T03:50:35.080Z,97.36
2022-10-14T03:51:35.089Z,97.17
2022-10-14T03:52:35.073Z,96.98
2022-10-14T03:53:35.055Z,97.27
2022-10-14T03:54:35.072Z,97.36
2022-10-14T03:55:35.066Z,97.17
2022-10-14T03:56:35.067Z,96.98
2022-10-14T03:57:35.061Z,97.46
2022-10-14T03:58:35.063Z,97.36
2022-10-14T03:59:35.037Z,97.36
2022-10-14T04:00:35.041Z,96.98
2022-10-14T04:01:35.081Z,96.80
2022-10-14T04:02:35.027Z,96.98
2022-10-14T04:03:35.018Z,96.70
2022-10-14T04:04:35.019Z,96.80
2022-10-14T04:05:35.040Z,95.94
2022-10-14T04:06:35.029Z,96.32
2022-10-14T04:07:35.039Z,96.41
2022-10-14T04:08:35.052Z,96.51
2022-10-14T04:09:35.039Z,96.41
2022-10-14T04:10:35.002Z,96.32
2022-10-14T04:11:34.972Z,95.94
2022-10-14T04:12:34.993Z,96.22
2022-10-14T04:13:34.993Z,96.41
2022-10-14T04:14:34.981Z,96.51
2022-10-14T04:15:34.968Z,96.03
2022-10-14T04:16:34.984Z,96.22
2022-10-14T04:17:34.988Z,95.94
2022-10-14T04:18:34.995Z,96.41
2022-10-14T04:19:34.946Z,96.51
2022-10-14T04:20:34.946Z,96.41
2022-10-14T04:21:34.949Z,95.94
2022-10-14T04:22:34.944Z,96.41
2022-10-14T04:23:34.935Z,96.51
2022-10-14T04:24:34.947Z,96.51
2022-10-14T04:25:34.944Z,96.32
2022-10-14T04:26:34.924Z,95.94
2022-10-14T04:27:34.942Z,96.03
2022-10-14T04:28:34.982Z,96.60
2022-10-14T04:29:34.931Z,96.22
2022-10-14T04:30:34.904Z,96.41
2022-10-14T04:31:34.908Z,96.22
2022-10-14T04:32:34.902Z,96.41
2022-10-14T04:33:34.898Z,96.32
2022-10-14T04:34:34.893Z,95.94
2022-10-14T04:35:34.875Z,96.12
2022-10-14T04:36:34.875Z,96.22
2022-10-14T04:37:34.879Z,95.65
2022-10-14T04:38:34.867Z,95.94
2022-10-14T04:39:34.852Z,96.03
2022-10-14T04:40:34.866Z,96.22
2022-10-14T04:41:34.857Z,95.94
2022-10-14T04:42:34.872Z,96.03
2022-10-14T04:43:34.867Z,96.03
2022-10-14T04:44:34.834Z,96.03
2022-10-14T04:45:34.821Z,95.75
2022-10-14T04:46:34.869Z,96.03
2022-10-14T04:47:34.819Z,96.12
2022-10-14T04:48:34.837Z,96.22
2022-10-14T04:49:34.832Z,96.41
2022-10-14T04:50:34.802Z,96.32
2022-10-14T04:51:34.819Z,96.51
2022-10-14T04:52:34.796Z,96.41
2022-10-14T04:53:34.791Z,96.89
2022-10-14T04:54:34.788Z,96.70
2022-10-14T04:55:34.775Z,97.17
2022-10-14T04:56:34.778Z,97.08
2022-10-14T04:57:34.791Z,97.08
2022-10-14T04:58:34.788Z,96.98
2022-10-14T04:59:34.787Z,97.17
2022-10-14T05:00:34.774Z,97.27
2022-10-14T05:01:34.807Z,97.36
2022-10-14T05:02:34.739Z,97.84
2022-10-14T05:03:34.747Z,97.94
2022-10-14T05:04:34.761Z,97.46
2022-10-14T05:05:34.741Z,97.56
2022-10-14T05:06:34.750Z,97.65
2022-10-14T05:07:34.751Z,97.46
2022-10-14T05:08:34.743Z,97.46
2022-10-14T05:09:34.744Z,97.27
2022-10-14T05:10:34.741Z,97.94
2022-10-14T05:11:34.742Z,97.94
2022-10-14T05:12:34.707Z,97.94
2022-10-14T05:13:34.699Z,97.27
2022-10-14T05:14:34.708Z,97.27
2022-10-14T05:15:34.699Z,98.22
2022-10-14T05:16:34.684Z,97.94
2022-10-14T05:17:34.680Z,98.13
2022-10-14T05:18:34.671Z,97.65
2022-10-14T05:19:34.674Z,97.75
2022-10-14T05:20:34.704Z,97.75
2022-10-14T05:21:34.666Z,98.13
2022-10-14T05:22:34.658Z,98.03
2022-10-14T05:23:34.661Z,98.13
2022-10-14T05:24:34.659Z,98.60
2022-10-14T05:25:34.664Z,98.70
2022-10-14T05:26:34.696Z,98.79
2022-10-14T05:27:34.644Z,98.70
2022-10-14T05:28:34.675Z,98.32
2022-10-14T05:29:34.634Z,98.99
2022-10-14T05:30:35.066Z,98.70
2022-10-14T05:31:34.666Z,98.70
2022-10-14T05:32:34.640Z,99.18
2022-10-14T05:33:34.615Z,99.18
2022-10-14T05:34:34.622Z,98.79
2022-10-14T05:35:57.538Z,99.08
2022-10-14T05:36:34.602Z,99.27
2022-10-14T05:37:34.610Z,99.37
2022-10-14T05:38:34.601Z,99.18
2022-10-14T05:39:34.579Z,99.55
2022-10-14T05:40:34.577Z,99.65
2022-10-14T05:41:34.572Z,98.79
2022-10-14T05:42:34.591Z,98.79
2022-10-14T05:43:34.583Z,99.18
2022-10-14T05:44:34.582Z,98.60
2022-10-14T05:45:34.590Z,98.60
2022-10-14T05:46:34.557Z,98.56
2022-10-14T05:47:34.545Z,98.41
2022-10-14T05:48:34.535Z,98.94
2022-10-14T05:49:34.532Z,98.94
2022-10-14T05:50:34.534Z,98.85
2022-10-14T05:51:34.546Z,98.65
2022-10-14T05:52:34.535Z,98.13
2022-10-14T05:53:34.548Z,98.18
2022-10-14T05:54:34.534Z,98.41
2022-10-14T05:55:34.507Z,98.03
2022-10-14T05:56:34.506Z,98.36
2022-10-14T05:57:34.507Z,98.75
2022-10-14T05:58:34.538Z,98.75
2022-10-14T05:59:34.508Z,98.18
2022-10-14T06:00:34.513Z,98.46
2022-10-14T06:01:34.512Z,98.94
2022-10-14T06:02:34.508Z,99.13
2022-10-14T06:03:34.522Z,99.04
2022-10-14T06:04:34.480Z,99.13
2022-10-14T06:05:34.486Z,99.13
2022-10-14T06:06:34.478Z,98.85
2022-10-14T06:07:34.471Z,99.32
2022-10-14T06:08:34.489Z,98.36
2022-10-14T06:09:34.463Z,99.41
2022-10-14T06:10:34.463Z,98.75
2022-10-14T06:11:34.491Z,99.04
2022-10-14T06:12:34.480Z,98.56
2022-10-14T06:13:34.472Z,98.85
2022-10-14T06:14:34.479Z,98.27
2022-10-14T06:15:34.429Z,98.46
2022-10-14T06:16:34.428Z,98.36
2022-10-14T06:17:34.462Z,98.56
2022-10-14T06:18:34.424Z,97.89
2022-10-14T06:19:34.415Z,97.89
2022-10-14T06:20:34.413Z,98.08
2022-10-14T06:21:34.420Z,97.99
2022-10-14T06:22:34.393Z,97.99
2022-10-14T06:23:34.401Z,97.99
2022-10-14T06:24:34.401Z,97.99
2022-10-14T06:25:34.387Z,98.08
2022-10-14T06:26:34.385Z,97.99
2022-10-14T06:27:34.398Z,98.08
2022-10-14T06:28:34.411Z,97.70
2022-10-14T06:29:34.422Z,98.56
2022-10-14T06:30:34.395Z,98.27
2022-10-14T06:31:34.400Z,98.18
2022-10-14T06:32:34.363Z,98.18
2022-10-14T06:33:34.359Z,98.36
2022-10-14T06:34:34.347Z,98.46
2022-10-14T06:35:34.369Z,98.36
2022-10-14T06:36:34.348Z,98.18
2022-10-14T06:37:34.347Z,98.36
2022-10-14T06:38:34.354Z,98.46
2022-10-14T06:39:34.342Z,98.27
2022-10-14T06:40:34.365Z,98.36
2022-10-14T06:41:34.333Z,98.36
2022-10-14T06:42:34.408Z,98.56
2022-10-14T06:43:34.308Z,98.36
2022-10-14T06:44:34.313Z,98.27
2022-10-14T06:45:34.303Z,98.85
2022-10-14T06:46:34.331Z,98.65
2022-10-14T06:47:34.299Z,98.65
2022-10-14T06:48:34.293Z,98.94
2022-10-14T06:49:34.289Z,98.75
2022-10-14T06:50:34.293Z,98.90
2022-10-14T06:51:34.282Z,98.94
2022-10-14T06:52:34.279Z,98.75
2022-10-14T06:53:34.283Z,98.94
2022-10-14T06:54:38.864Z,98.85
2022-10-14T06:55:34.271Z,98.75
2022-10-14T06:56:34.300Z,97.94
2022-10-14T06:57:34.269Z,98.03
2022-10-14T06:58:34.260Z,97.51
2022-10-14T06:59:34.261Z,97.80
2022-10-14T07:00:34.329Z,97.85
2022-10-14T07:01:34.291Z,98.27
2022-10-14T07:02:34.258Z,97.61
2022-10-14T07:03:34.237Z,97.99
2022-10-14T07:04:34.225Z,98.08
2022-10-14T07:05:34.237Z,98.32
2022-10-14T07:06:34.226Z,97.89
2022-10-14T07:07:34.294Z,97.99
2022-10-14T07:08:34.238Z,98.18
2022-10-14T07:09:34.215Z,98.08
2022-10-14T07:10:34.207Z,98.03
2022-10-14T07:11:34.207Z,98.18
2022-10-14T07:12:34.203Z,97.94
2022-10-14T07:13:34.203Z,97.94
2022-10-14T07:14:34.190Z,98.42
2022-10-14T07:15:36.316Z,98.61
2022-10-14T07:16:34.181Z,98.22
2022-10-14T07:17:34.177Z,98.42
2022-10-14T07:18:34.176Z,98.22
2022-10-14T07:19:34.175Z,98.22
2022-10-14T07:20:34.184Z,98.51
2022-10-14T07:21:34.155Z,98.99
2022-10-14T07:22:38.418Z,98.90
2022-10-14T07:23:34.169Z,98.90
2022-10-14T07:24:34.154Z,98.80
2022-10-14T07:25:34.153Z,99.18
2022-10-14T07:26:34.137Z,98.70
2022-10-14T07:27:34.137Z,99.37
2022-10-14T07:28:34.320Z,99.27
2022-10-14T07:29:34.131Z,98.32
2022-10-14T07:30:34.142Z,99.37
2022-10-14T07:31:34.133Z,99.27
2022-10-14T07:32:34.120Z,99.27
2022-10-14T07:33:34.240Z,98.22
2022-10-14T07:34:34.112Z,99.27
2022-10-14T07:35:34.139Z,99.18
2022-10-14T07:36:34.103Z,98.80
2022-10-14T07:37:34.116Z,98.51
2022-10-14T07:38:34.107Z,98.42
2022-10-14T07:39:34.136Z,98.51
2022-10-14T07:40:34.097Z,98.90
2022-10-14T07:41:34.090Z,99.08
2022-10-14T07:42:34.089Z,99.08
2022-10-14T07:44:34.133Z,99.27
2022-10-14T07:45:34.131Z,98.90
2022-10-14T07:46:34.116Z,99.08
2022-10-14T07:47:34.116Z,99.08
2022-10-14T07:48:45.277Z,98.99
2022-10-14T07:49:34.112Z,98.51
2022-10-14T07:50:35.116Z,98.51
2022-10-14T07:51:34.101Z,99.27
2022-10-14T07:52:34.102Z,99.18
2022-10-14T07:53:34.102Z,98.85
2022-10-14T07:54:34.102Z,99.27
2022-10-14T07:55:34.098Z,99.18
2022-10-14T07:56:35.149Z,99.32
2022-10-14T07:57:34.085Z,99.13
2022-10-14T07:58:34.076Z,99.32
2022-10-14T07:59:34.083Z,99.23
2022-10-14T08:00:34.090Z,99.13
2022-10-14T08:01:34.091Z,99.04
2022-10-14T08:02:35.090Z,98.94
2022-10-14T08:03:34.070Z,99.90
2022-10-14T08:04:34.074Z,99.23
2022-10-14T08:05:38.222Z,99.13
2022-10-14T08:06:34.071Z,99.04
2022-10-14T08:07:34.058Z,99.23
2022-10-14T08:08:35.076Z,98.80
2022-10-14T08:09:34.052Z,98.42
2022-10-14T08:10:34.043Z,98.52
2022-10-14T08:11:34.028Z,98.61
2022-10-14T08:12:34.036Z,99.37
2022-10-14T08:13:34.039Z,98.71
2022-10-14T08:14:35.037Z,98.57
2022-10-14T08:15:34.021Z,97.13
2022-10-14T08:16:34.025Z,96.17
2022-10-14T08:17:34.037Z,95.70
2022-10-14T08:18:34.043Z,95.32
2022-10-14T08:19:34.037Z,95.03
2022-10-14T08:20:35.067Z,95.46
2022-10-14T08:21:34.012Z,94.79
2022-10-14T08:22:34.023Z,94.22
2022-10-14T08:23:34.015Z,94.17
2022-10-14T08:24:34.018Z,93.69
2022-10-14T08:25:34.020Z,92.54
2022-10-14T08:26:35.053Z,91.68
2022-10-14T08:27:34.021Z,91.59
2022-10-14T08:28:34.117Z,90.87
2022-10-14T08:29:34.056Z,90.39
2022-10-14T08:30:34.040Z,89.91
2022-10-14T08:31:34.027Z,89.81
2022-10-14T08:32:35.045Z,89.48
2022-10-14T08:33:34.009Z,88.81
2022-10-14T08:34:34.018Z,88.33
2022-10-14T08:35:34.018Z,87.61
2022-10-14T08:36:34.030Z,86.84
2022-10-14T08:37:34.026Z,86.36
2022-10-14T08:38:35.063Z,85.79
2022-10-14T08:39:34.072Z,84.35
2022-10-14T08:40:34.049Z,84.92
2022-10-14T08:41:34.060Z,84.26
2022-10-14T08:42:34.050Z,84.64
2022-10-14T08:43:34.066Z,84.16
2022-10-14T08:44:35.081Z,84.26
2022-10-14T08:45:34.077Z,84.74
2022-10-14T08:46:34.069Z,84.35
2022-10-14T08:47:34.085Z,84.12
2022-10-14T08:48:34.085Z,84.31
2022-10-14T08:49:34.096Z,84.41
2022-10-14T08:50:35.111Z,84.88
2022-10-14T08:51:34.095Z,85.27
2022-10-14T08:52:37.547Z,86.04
2022-10-14T08:53:34.108Z,85.94
2022-10-14T08:54:34.105Z,86.13
2022-10-14T08:55:34.108Z,86.41
2022-10-14T08:56:35.116Z,86.90
2022-10-14T08:57:34.106Z,87.23
2022-10-14T08:58:34.115Z,87.08
2022-10-14T08:59:34.124Z,86.90
2022-10-14T09:00:34.134Z,86.61
2022-10-14T09:01:34.215Z,87.27
2022-10-14T09:02:35.145Z,87.47
2022-10-14T09:03:34.128Z,87.37
2022-10-14T09:04:34.127Z,86.99
2022-10-14T09:05:34.117Z,86.51
2022-10-14T09:06:34.124Z,86.37
2022-10-14T09:07:34.132Z,86.85
2022-10-14T09:08:35.145Z,87.47
2022-10-14T09:09:34.135Z,87.37
2022-10-14T09:10:34.137Z,87.27
2022-10-14T09:11:34.506Z,87.56
2022-10-14T09:12:34.168Z,87.52
2022-10-14T09:13:34.128Z,87.52
2022-10-14T09:14:35.161Z,87.33
2022-10-14T09:15:34.128Z,87.08
2022-10-14T09:16:34.129Z,87.52
2022-10-14T09:17:37.021Z,87.81
2022-10-14T09:18:34.139Z,87.90
2022-10-14T09:19:34.139Z,88.62
2022-10-14T09:20:35.156Z,88.52
2022-10-14T09:21:51.702Z,88.04
2022-10-14T09:22:34.146Z,87.85
2022-10-14T09:23:34.133Z,87.66
2022-10-14T09:24:34.133Z,87.66
2022-10-14T09:25:34.129Z,87.08
2022-10-14T09:26:35.149Z,87.37
2022-10-14T09:27:34.235Z,87.37
2022-10-14T09:28:34.180Z,87.18
2022-10-14T09:29:34.152Z,87.47
2022-10-14T09:30:34.162Z,87.47
2022-10-14T09:32:35.146Z,87.56
2022-10-14T09:33:37.104Z,87.47
2022-10-14T09:34:34.145Z,87.56
2022-10-14T09:35:34.120Z,87.95
2022-10-14T09:36:34.126Z,87.95
2022-10-14T09:37:34.150Z,88.23
2022-10-14T09:38:35.133Z,88.33
2022-10-14T09:39:34.125Z,88.04
2022-10-14T09:40:34.121Z,88.33
2022-10-14T09:41:34.154Z,89.09
2022-10-14T09:42:34.132Z,88.90
2022-10-14T09:43:34.212Z,88.81
2022-10-14T09:44:35.148Z,87.90
2022-10-14T09:45:34.112Z,87.56
2022-10-14T09:46:34.130Z,87.23
2022-10-14T09:47:34.131Z,86.41
2022-10-14T09:48:34.144Z,86.36
2022-10-14T09:49:34.115Z,87.27
2022-10-14T09:50:35.130Z,87.32
2022-10-14T09:51:34.119Z,86.84
2022-10-14T09:52:34.137Z,87.32
2022-10-14T09:53:34.126Z,86.90
2022-10-14T09:54:34.119Z,86.99
2022-10-14T09:55:34.118Z,86.80
2022-10-14T09:56:39.040Z,86.55
2022-10-14T09:57:34.134Z,87.13
2022-10-14T09:58:34.113Z,87.32
2022-10-14T09:59:34.137Z,87.32
2022-10-14T10:00:34.122Z,87.32
2022-10-14T10:01:34.115Z,86.94
2022-10-14T10:02:35.125Z,86.65
2022-10-14T10:03:34.113Z,86.55
2022-10-14T10:04:34.124Z,86.27
2022-10-14T10:05:34.108Z,86.41
2022-10-14T10:06:34.108Z,86.46
2022-10-14T10:07:34.109Z,86.65
2022-10-14T10:08:35.122Z,86.27
2022-10-14T10:09:34.112Z,87.03
2022-10-14T10:10:34.110Z,86.99
2022-10-14T10:11:34.127Z,86.90
2022-10-14T10:12:34.105Z,86.51
2022-10-14T10:13:34.108Z,87.08
2022-10-14T10:14:35.116Z,87.18
2022-10-14T10:15:34.106Z,87.37
2022-10-14T10:16:34.112Z,87.37
2022-10-14T10:17:34.106Z,87.18
2022-10-14T10:18:34.108Z,87.56
2022-10-14T10:19:34.107Z,87.47
2022-10-14T10:20:35.124Z,87.66
2022-10-14T10:21:34.105Z,88.52
2022-10-14T10:22:34.109Z,89.43
2022-10-14T10:23:34.083Z,90.09
2022-10-14T10:24:34.095Z,90.48
2022-10-14T10:25:34.099Z,90.39
2022-10-14T10:26:35.122Z,91.05
2022-10-14T10:27:34.082Z,90.48
2022-10-14T10:28:34.114Z,90.14
2022-10-14T10:29:34.093Z,90.23
2022-10-14T10:30:34.091Z,89.18
2022-10-14T10:31:34.273Z,88.51
2022-10-14T10:32:35.106Z,88.51
2022-10-14T10:33:34.086Z,88.70
2022-10-14T10:34:34.107Z,88.03
2022-10-14T10:35:34.084Z,88.03
2022-10-14T10:36:34.161Z,87.94
2022-10-14T10:37:34.090Z,87.84
2022-10-14T10:38:35.106Z,87.55
2022-10-14T10:39:34.078Z,86.69
2022-10-14T10:40:34.138Z,86.50
2022-10-14T10:41:34.079Z,85.83
2022-10-14T10:42:34.082Z,85.93
2022-10-14T10:43:34.107Z,85.64
2022-10-14T10:44:35.078Z,86.60
2022-10-14T10:45:36.538Z,86.50
2022-10-14T10:46:34.127Z,86.31
2022-10-14T10:47:34.068Z,86.46
2022-10-14T10:48:34.072Z,86.69
2022-10-14T10:49:34.098Z,86.36
2022-10-14T10:50:35.078Z,86.65
2022-10-14T10:51:34.070Z,86.84
2022-10-14T10:52:34.106Z,87.41
2022-10-14T10:53:34.080Z,86.84
2022-10-14T10:54:34.061Z,86.65
2022-10-14T10:55:34.121Z,87.41
2022-10-14T10:56:35.079Z,86.84
2022-10-14T10:57:34.063Z,86.65
2022-10-14T10:58:34.064Z,87.41
2022-10-14T10:59:34.063Z,86.74
2022-10-14T11:00:34.079Z,86.84
2022-10-14T11:01:34.090Z,86.84
2022-10-14T11:02:35.071Z,86.88
2022-10-14T11:03:34.108Z,86.84
2022-10-14T11:04:34.098Z,87.51
2022-10-14T11:05:34.068Z,86.65
2022-10-14T11:06:34.178Z,86.74
2022-10-14T11:07:34.075Z,86.65
2022-10-14T11:08:35.086Z,86.27
2022-10-14T11:09:34.073Z,86.27
2022-10-14T11:10:34.076Z,85.88
2022-10-14T11:11:34.063Z,85.60
2022-10-14T11:12:34.068Z,85.50
2022-10-14T11:13:34.062Z,86.46
2022-10-14T11:14:35.088Z,86.55
2022-10-14T11:15:34.058Z,86.36
2022-10-14T11:16:34.060Z,86.27
2022-10-14T11:17:34.094Z,86.27
2022-10-14T11:18:34.080Z,86.84
2022-10-14T11:19:34.046Z,86.74
2022-10-14T11:20:35.070Z,86.65
2022-10-14T11:21:34.080Z,87.37
2022-10-14T11:22:34.074Z,86.69
2022-10-14T11:23:34.067Z,86.88
2022-10-14T11:24:34.058Z,86.60
2022-10-14T11:25:34.054Z,86.79
2022-10-14T11:27:34.063Z,86.69
2022-10-14T11:28:34.091Z,87.08
2022-10-14T11:29:34.116Z,86.50
2022-10-14T11:30:34.075Z,85.93
2022-10-14T11:31:34.088Z,86.12
2022-10-14T11:32:35.097Z,85.54
2022-10-14T11:33:38.896Z,85.54
2022-10-14T11:34:34.049Z,85.54
2022-10-14T11:36:34.069Z,84.68
2022-10-14T11:37:34.057Z,84.30
2022-10-14T11:39:35.682Z,84.20
2022-10-14T11:40:34.065Z,84.58
2022-10-14T11:41:34.052Z,84.49
2022-10-14T11:42:34.046Z,84.88
2022-10-14T11:43:34.050Z,84.68
2022-10-14T11:45:34.044Z,84.68
2022-10-14T11:46:34.051Z,85.25
2022-10-14T11:47:34.061Z,84.97
2022-10-14T11:48:34.045Z,85.41
2022-10-14T11:49:34.043Z,85.21
2022-10-14T11:50:35.053Z,85.31
2022-10-14T11:51:35.939Z,85.02
2022-10-14T11:52:34.043Z,85.41
2022-10-14T11:53:34.069Z,85.16
2022-10-14T11:54:34.043Z,85.41
2022-10-14T11:55:34.063Z,85.41
2022-10-14T11:56:35.060Z,85.50
2022-10-14T11:57:34.135Z,85.50
2022-10-14T11:58:34.038Z,85.02
2022-10-14T11:59:34.077Z,85.21
2022-10-14T12:00:34.067Z,85.50
2022-10-14T12:01:37.234Z,85.35
2022-10-14T12:02:35.107Z,85.31
2022-10-14T12:03:34.040Z,85.45
2022-10-14T12:04:34.026Z,85.74
2022-10-14T12:05:34.059Z,85.93
2022-10-14T12:06:34.031Z,85.93
2022-10-14T12:07:34.033Z,85.93
2022-10-14T12:08:35.868Z,85.74
2022-10-14T12:09:34.149Z,85.83
2022-10-14T12:10:34.032Z,85.74
2022-10-14T12:11:34.059Z,85.64
2022-10-14T12:12:34.034Z,86.02
2022-10-14T12:13:34.042Z,86.12
2022-10-14T12:14:35.039Z,86.41
2022-10-14T12:15:34.034Z,86.50
2022-10-14T12:16:34.017Z,85.93
2022-10-14T12:17:34.076Z,85.45
2022-10-14T12:18:34.014Z,85.54
2022-10-14T12:19:34.034Z,85.16
2022-10-14T12:20:35.048Z,85.12
2022-10-14T12:21:34.035Z,85.54
2022-10-14T12:22:34.013Z,85.45
2022-10-14T12:23:34.016Z,86.12
2022-10-14T12:24:34.013Z,85.64
2022-10-14T12:25:34.079Z,85.83
2022-10-14T12:26:35.058Z,85.93
2022-10-14T12:27:34.036Z,85.16
2022-10-14T12:28:34.072Z,85.64
2022-10-14T12:29:34.037Z,84.97
2022-10-14T12:30:34.044Z,84.68
2022-10-14T12:31:34.019Z,84.58
2022-10-14T12:32:35.016Z,84.58
2022-10-14T12:33:34.031Z,84.68
2022-10-14T12:34:34.011Z,84.97
2022-10-14T12:35:34.018Z,85.06
2022-10-14T12:36:34.024Z,84.97
2022-10-14T12:37:34.260Z,85.35
2022-10-14T12:38:35.027Z,85.45
2022-10-14T12:39:34.024Z,85.16
2022-10-14T12:40:34.004Z,85.16
2022-10-14T12:41:34.053Z,85.45
2022-10-14T12:42:34.845Z,84.78
2022-10-14T12:43:34.031Z,84.30
2022-10-14T12:44:35.037Z,84.78
2022-10-14T12:45:34.221Z,84.58
2022-10-14T12:46:33.989Z,84.39
2022-10-14T12:47:34.018Z,85.16
2022-10-14T12:48:34.005Z,84.88
2022-10-14T12:49:34.028Z,84.97
2022-10-14T12:50:35.004Z,84.20
2022-10-14T12:51:33.998Z,84.20
2022-10-14T12:52:34.024Z,83.63
2022-10-14T12:53:34.005Z,83.63
2022-10-14T12:54:34.013Z,83.25
2022-10-14T12:55:34.021Z,82.96
2022-10-14T12:56:35.004Z,82.76
2022-10-14T12:57:37.322Z,83.53
2022-10-14T12:58:33.989Z,83.15